Time;durP1;ratioP1;P1;durP2;ratioP2;P2;SDS_P1;SDS_P2;PMS_P1;PMS_P2;Temp;Humidity;BMP_temperature;BMP_pressure;BME280_temperature;BME280_humidity;BME280_pressure;Samples;Min_cycle;Max_cycle;Signal;HPM_P1;HPM_P2
2021/03/20 00:00:54;;;;;;;10.27;5.75;;;3.40;92.10;;;;;;5034927;28;20477;-71
2021/03/20 00:03:21;;;;;;;9.07;5.78;;;3.50;92.00;;;;;;5049283;28;20025;-70
2021/03/20 00:05:47;;;;;;;9.20;5.43;;;3.60;91.90;;;;;;5034671;28;20022;-71
2021/03/20 00:08:17;;;;;;;9.88;5.68;;;3.60;91.70;;;;;;5034860;28;20053;-72
2021/03/20 00:10:43;;;;;;;8.13;5.78;;;3.60;91.60;;;;;;5033923;28;20453;-72
2021/03/20 00:13:08;;;;;;;14.18;12.82;;;3.60;91.60;;;;;;5034758;28;20093;-72
2021/03/20 00:15:34;;;;;;;14.27;10.45;;;3.60;91.60;;;;;;5034664;28;20037;-71
2021/03/20 00:18:00;;;;;;;10.95;6.90;;;3.60;91.60;;;;;;5033957;28;20449;-71
2021/03/20 00:20:29;;;;;;;10.93;6.45;;;3.60;91.60;;;;;;5034196;28;20041;-71
2021/03/20 00:22:55;;;;;;;8.43;5.97;;;3.60;91.60;;;;;;5049896;28;20767;-71
2021/03/20 00:25:21;;;;;;;14.40;6.93;;;3.70;91.50;;;;;;5032184;28;20049;-70
2021/03/20 00:27:47;;;;;;;13.52;6.60;;;3.80;91.70;;;;;;5049791;28;20460;-70
2021/03/20 00:30:14;;;;;;;8.00;6.00;;;3.90;91.30;;;;;;5034300;28;20026;-70
2021/03/20 00:32:40;;;;;;;9.38;6.28;;;3.90;91.20;;;;;;5033613;28;20041;-71
2021/03/20 00:35:07;;;;;;;8.85;6.05;;;4.00;91.10;;;;;;5049474;28;20025;-70
2021/03/20 00:37:33;;;;;;;6.43;5.65;;;4.00;91.00;;;;;;5033876;28;20440;-71
2021/03/20 00:39:59;;;;;;;9.23;6.88;;;4.10;90.90;;;;;;5033724;28;20041;-72
2021/03/20 00:42:25;;;;;;;12.40;6.05;;;4.10;90.70;;;;;;5033948;28;20027;-70
2021/03/20 00:44:50;;;;;;;11.15;6.82;;;4.00;90.60;;;;;;5033464;28;20029;-71
2021/03/20 00:47:16;;;;;;;8.48;6.50;;;4.00;90.60;;;;;;5049209;28;20485;-71
2021/03/20 00:49:41;;;;;;;8.85;6.10;;;4.00;90.60;;;;;;5032303;28;20481;-71
2021/03/20 00:52:07;;;;;;;8.18;5.72;;;3.90;90.50;;;;;;5033534;28;20014;-69
2021/03/20 00:54:33;;;;;;;7.85;5.88;;;3.90;90.40;;;;;;5033812;28;20057;-70
2021/03/20 00:56:58;;;;;;;7.32;5.78;;;3.80;90.50;;;;;;5032599;28;20531;-69
2021/03/20 00:59:24;;;;;;;7.57;5.97;;;3.70;90.50;;;;;;5032859;28;20159;-70
2021/03/20 01:01:50;;;;;;;8.77;6.20;;;3.60;90.60;;;;;;5033832;28;20055;-71
2021/03/20 01:04:15;;;;;;;7.13;5.72;;;3.50;91.00;;;;;;5033481;28;20021;-71
2021/03/20 01:06:41;;;;;;;7.53;5.63;;;3.40;90.80;;;;;;5032920;28;20018;-71
2021/03/20 01:09:06;;;;;;;11.68;5.82;;;3.40;90.80;;;;;;5032564;28;20029;-71
2021/03/20 01:11:33;;;;;;;5.60;4.88;;;3.30;90.90;;;;;;5048822;28;20013;-70
2021/03/20 01:13:59;;;;;;;9.57;6.28;;;3.20;90.90;;;;;;5048151;28;20021;-70
2021/03/20 01:16:25;;;;;;;7.88;5.65;;;3.20;90.90;;;;;;5048488;28;20086;-72
2021/03/20 01:18:52;;;;;;;13.40;5.60;;;3.10;90.90;;;;;;5033421;28;20473;-71
2021/03/20 01:21:18;;;;;;;6.80;5.43;;;3.00;90.90;;;;;;5047927;28;20381;-70
2021/03/20 01:23:44;;;;;;;8.55;5.78;;;3.00;91.00;;;;;;5048667;28;20056;-70
2021/03/20 01:26:10;;;;;;;8.75;5.47;;;2.90;91.00;;;;;;5032940;28;20029;-70
2021/03/20 01:28:38;;;;;;;7.80;5.93;;;2.90;91.10;;;;;;5032708;28;20030;-71
2021/03/20 01:31:04;;;;;;;7.40;5.72;;;2.80;91.10;;;;;;5033570;28;20053;-71
2021/03/20 01:33:30;;;;;;;8.18;5.85;;;2.80;91.10;;;;;;5032965;28;20509;-71
2021/03/20 01:35:56;;;;;;;8.82;5.55;;;2.80;91.20;;;;;;5032287;28;20053;-69
2021/03/20 01:38:22;;;;;;;9.70;5.70;;;2.80;91.20;;;;;;5032855;28;20030;-70
2021/03/20 01:41:17;;;;;;;8.32;5.50;;;2.80;91.20;;;;;;5033118;28;20037;-69
2021/03/20 01:43:43;;;;;;;7.38;5.72;;;2.70;91.20;;;;;;5030740;28;20096;-70
2021/03/20 01:46:46;;;;;;;8.38;6.30;;;2.70;91.20;;;;;;5048037;28;20029;-70
2021/03/20 01:49:14;;;;;;;9.07;5.28;;;2.60;91.20;;;;;;5032064;28;20052;-69
2021/03/20 01:51:40;;;;;;;7.47;6.05;;;2.60;91.30;;;;;;5032703;28;20029;-69
2021/03/20 01:54:06;;;;;;;8.15;5.90;;;2.50;91.30;;;;;;5032825;28;20042;-69
2021/03/20 01:56:42;;;;;;;8.07;6.15;;;2.50;91.40;;;;;;5031713;28;20030;-69
2021/03/20 01:59:10;;;;;;;10.52;6.53;;;2.40;91.40;;;;;;5032737;28;20037;-69
2021/03/20 02:01:36;;;;;;;8.35;6.10;;;2.40;91.40;;;;;;5032162;28;20155;-69
2021/03/20 02:04:02;;;;;;;9.70;5.40;;;2.40;91.40;;;;;;5032090;28;20026;-69
2021/03/20 02:06:28;;;;;;;7.72;5.07;;;2.40;91.50;;;;;;5032309;28;20513;-69
2021/03/20 02:08:57;;;;;;;8.20;6.15;;;2.40;91.50;;;;;;5032625;28;20025;-69
2021/03/20 02:11:27;;;;;;;10.10;6.07;;;2.30;91.40;;;;;;5031580;28;20401;-70
2021/03/20 02:14:22;;;;;;;7.30;5.57;;;2.30;91.40;;;;;;5032361;28;20488;-70
2021/03/20 02:17:12;;;;;;;7.47;4.95;;;2.20;91.40;;;;;;5047300;28;20371;-70
2021/03/20 02:19:46;;;;;;;9.43;5.82;;;2.10;91.40;;;;;;5032239;28;20069;-70
2021/03/20 02:22:29;;;;;;;7.93;5.60;;;2.10;91.40;;;;;;5032053;28;20481;-70
2021/03/20 02:25:15;;;;;;;10.20;6.57;;;2.00;91.50;;;;;;5046883;28;20074;-70
2021/03/20 02:28:07;;;;;;;8.55;7.65;;;2.00;91.60;;;;;;5032020;28;20024;-70
2021/03/20 02:30:50;;;;;;;7.10;5.75;;;1.90;91.60;;;;;;5031807;28;20025;-70
2021/03/20 02:33:43;;;;;;;5.93;5.22;;;1.90;91.60;;;;;;5032039;28;20038;-70
2021/03/20 02:36:13;;;;;;;7.03;5.85;;;1.90;91.60;;;;;;5031834;28;20026;-70
2021/03/20 02:39:04;;;;;;;8.63;6.45;;;1.80;91.60;;;;;;5031298;28;20033;-69
2021/03/20 02:41:43;;;;;;;12.30;9.13;;;1.80;91.60;;;;;;5031763;28;20541;-70
2021/03/20 02:44:21;;;;;;;8.10;7.13;;;1.70;91.60;;;;;;5031763;28;20064;-69
2021/03/20 02:46:56;;;;;;;8.55;6.70;;;1.70;91.70;;;;;;5031940;28;20085;-68
2021/03/20 02:49:45;;;;;;;7.63;6.25;;;1.70;91.80;;;;;;5031581;28;20030;-66
2021/03/20 02:52:24;;;;;;;9.95;8.30;;;1.60;91.80;;;;;;5032626;28;20028;-70
2021/03/20 02:54:53;;;;;;;7.90;7.10;;;1.60;91.90;;;;;;5031362;28;20055;-70
2021/03/20 02:57:21;;;;;;;10.95;7.32;;;1.60;91.90;;;;;;5030954;28;20029;-69
2021/03/20 02:59:59;;;;;;;13.18;8.00;;;1.50;91.90;;;;;;5030130;28;20041;-69
2021/03/20 03:02:28;;;;;;;9.98;6.60;;;1.50;92.00;;;;;;5045956;28;20052;-69
2021/03/20 03:05:01;;;;;;;8.55;7.53;;;1.50;91.90;;;;;;5030893;28;20033;-69
2021/03/20 03:07:32;;;;;;;10.52;7.43;;;1.50;91.90;;;;;;5030028;28;20525;-69
2021/03/20 03:10:09;;;;;;;10.93;7.13;;;1.50;91.90;;;;;;5029699;28;20474;-69
2021/03/20 03:12:41;;;;;;;8.38;7.05;;;1.50;91.90;;;;;;5048236;28;20025;-70
2021/03/20 03:15:12;;;;;;;8.40;6.97;;;1.50;92.00;;;;;;5034687;28;20021;-69
2021/03/20 03:17:42;;;;;;;8.73;7.43;;;1.50;92.00;;;;;;5049592;28;20034;-69
2021/03/20 03:20:18;;;;;;;9.27;7.93;;;1.50;92.00;;;;;;5033564;28;20037;-69
2021/03/20 03:23:00;;;;;;;10.43;7.28;;;1.40;92.00;;;;;;5049605;28;20030;-68
2021/03/20 03:25:28;;;;;;;9.93;8.07;;;1.40;92.00;;;;;;5033932;28;20096;-70
2021/03/20 03:27:55;;;;;;;9.07;8.18;;;1.40;92.10;;;;;;5033759;28;20053;-69
2021/03/20 03:30:24;;;;;;;8.45;7.30;;;1.30;92.10;;;;;;5033992;28;20022;-69
2021/03/20 03:33:03;;;;;;;11.73;8.23;;;1.30;92.10;;;;;;5034216;28;20049;-70
2021/03/20 03:35:36;;;;;;;11.20;9.98;;;1.20;92.20;;;;;;5033148;28;20603;-69
2021/03/20 03:38:08;;;;;;;9.82;8.43;;;1.20;92.20;;;;;;5034188;28;20476;-70
2021/03/20 03:41:01;;;;;;;12.95;9.70;;;1.20;92.30;;;;;;5033222;28;20440;-71
2021/03/20 03:43:27;;;;;;;14.40;13.07;;;1.10;92.30;;;;;;5033747;28;20022;-69
2021/03/20 03:45:53;;;;;;;11.15;10.07;;;1.10;92.30;;;;;;5033930;28;20040;-68
2021/03/20 03:48:21;;;;;;;11.65;10.35;;;1.10;92.30;;;;;;5033053;28;20112;-70
2021/03/20 03:50:48;;;;;;;13.77;10.32;;;1.10;92.40;;;;;;5032596;28;20108;-71
2021/03/20 03:53:18;;;;;;;12.68;11.38;;;1.10;92.40;;;;;;5033514;28;20387;-70
2021/03/20 03:55:44;;;;;;;12.75;9.23;;;1.10;92.40;;;;;;5015021;28;551548;-71
2021/03/20 03:58:24;;;;;;;11.07;9.38;;;1.10;92.40;;;;;;5035007;28;20112;-69
2021/03/20 04:01:12;;;;;;;13.07;11.98;;;1.10;92.40;;;;;;5034890;28;20029;-70
2021/03/20 04:03:43;;;;;;;12.32;11.23;;;1.10;92.40;;;;;;5034256;28;20030;-70
2021/03/20 04:06:36;;;;;;;15.02;13.85;;;1.10;92.40;;;;;;5034633;28;20076;-71
2021/03/20 04:09:39;;;;;;;14.57;13.30;;;1.10;92.30;;;;;;5033013;28;20056;-70
2021/03/20 04:12:18;;;;;;;14.43;13.20;;;1.10;92.30;;;;;;5035019;28;20048;-71
2021/03/20 04:15:07;;;;;;;17.02;15.50;;;1.10;92.30;;;;;;5034555;28;20033;-70
2021/03/20 04:17:38;;;;;;;16.83;15.60;;;1.00;92.30;;;;;;5033649;28;20022;-70
2021/03/20 04:20:03;;;;;;;13.77;12.48;;;1.00;92.30;;;;;;5034863;28;20473;-70
2021/03/20 04:22:43;;;;;;;12.02;10.90;;;1.00;92.30;;;;;;5034284;28;20028;-69
2021/03/20 04:25:22;;;;;;;13.73;12.45;;;1.00;92.40;;;;;;5034276;28;20099;-70
2021/03/20 04:27:55;;;;;;;13.85;12.65;;;1.00;92.40;;;;;;5034515;28;20025;-70
2021/03/20 04:30:24;;;;;;;12.02;11.10;;;1.00;92.40;;;;;;5033545;28;20041;-71
2021/03/20 04:33:01;;;;;;;13.07;11.93;;;1.00;92.40;;;;;;5034243;28;20036;-70
2021/03/20 04:35:40;;;;;;;14.90;13.40;;;1.00;92.40;;;;;;5034114;28;20017;-70
2021/03/20 04:38:07;;;;;;;15.10;13.65;;;1.00;92.40;;;;;;5032610;28;20428;-70
2021/03/20 04:40:50;;;;;;;10.00;6.95;;;1.10;92.30;;;;;;5034054;28;20044;-71
2021/03/20 04:43:22;;;;;;;10.45;9.63;;;1.10;92.20;;;;;;5049348;28;20388;-70
2021/03/20 04:45:55;;;;;;;9.65;7.63;;;1.10;92.10;;;;;;5033474;28;20111;-71
2021/03/20 04:48:24;;;;;;;12.57;9.18;;;1.10;92.00;;;;;;5033933;28;20025;-71
2021/03/20 04:51:24;;;;;;;9.55;8.57;;;1.10;91.90;;;;;;5034061;28;20021;-70
2021/03/20 04:53:52;;;;;;;11.85;10.90;;;1.20;91.90;;;;;;5031671;28;20033;-68
2021/03/20 04:56:20;;;;;;;10.65;8.32;;;1.20;91.90;;;;;;5033618;28;20033;-69
2021/03/20 04:58:57;;;;;;;8.75;7.95;;;1.20;91.90;;;;;;5033371;28;20021;-70
2021/03/20 05:01:32;;;;;;;10.00;8.65;;;1.20;91.80;;;;;;5033554;28;20036;-69
2021/03/20 05:04:06;;;;;;;8.60;7.55;;;1.20;91.80;;;;;;5033817;28;20029;-70
2021/03/20 05:06:34;;;;;;;9.65;8.85;;;1.20;91.80;;;;;;5032754;28;20068;-70
2021/03/20 05:09:03;;;;;;;9.82;8.25;;;1.10;91.80;;;;;;5034009;28;20032;-71
2021/03/20 05:11:44;;;;;;;8.07;7.28;;;1.10;91.80;;;;;;5033360;28;20394;-70
2021/03/20 05:14:27;;;;;;;11.35;9.80;;;1.10;91.80;;;;;;5032758;28;20064;-70
2021/03/20 05:16:56;;;;;;;11.40;10.48;;;1.10;91.80;;;;;;5033591;28;20087;-70
2021/03/20 05:19:23;;;;;;;9.98;9.07;;;1.10;91.80;;;;;;5032504;28;20091;-70
2021/03/20 05:21:51;;;;;;;10.52;9.48;;;1.00;91.70;;;;;;5033437;28;20029;-70
2021/03/20 05:24:29;;;;;;;9.02;8.13;;;1.00;91.80;;;;;;5033216;28;20079;-70
2021/03/20 05:26:56;;;;;;;9.73;8.75;;;1.00;91.80;;;;;;5032638;28;20030;-70
2021/03/20 05:29:23;;;;;;;9.70;8.90;;;1.00;91.90;;;;;;5033242;28;20037;-71
2021/03/20 05:31:48;;;;;;;10.57;9.57;;;1.00;91.90;;;;;;5033246;28;20080;-70
2021/03/20 05:34:19;;;;;;;11.75;10.65;;;0.90;91.80;;;;;;5032071;28;20049;-70
2021/03/20 05:36:45;;;;;;;12.73;9.48;;;0.90;91.90;;;;;;5032589;28;20053;-70
2021/03/20 05:39:11;;;;;;;11.55;10.55;;;0.90;91.90;;;;;;5032886;28;20069;-70
2021/03/20 05:42:14;;;;;;;12.73;9.73;;;0.90;91.90;;;;;;5032456;28;20022;-70
2021/03/20 05:44:59;;;;;;;13.77;12.27;;;0.90;91.90;;;;;;5032953;28;20037;-69
2021/03/20 05:47:54;;;;;;;14.63;13.38;;;0.90;91.90;;;;;;5030952;28;20183;-69
2021/03/20 05:50:53;;;;;;;15.00;13.73;;;0.90;91.90;;;;;;5027742;28;20037;-69
2021/03/20 05:53:34;;;;;;;19.25;17.48;;;1.00;92.00;;;;;;5032882;28;20033;-69
2021/03/20 05:56:15;;;;;;;12.47;11.43;;;1.00;92.00;;;;;;5032337;28;20107;-70
2021/03/20 05:59:01;;;;;;;17.38;15.93;;;1.00;92.00;;;;;;5031381;28;20692;-69
2021/03/20 06:01:57;;;;;;;15.25;13.82;;;1.00;91.90;;;;;;5030631;28;20117;-70
2021/03/20 06:04:30;;;;;;;12.05;11.05;;;1.00;92.00;;;;;;5032129;28;20025;-70
2021/03/20 06:07:21;;;;;;;13.05;11.80;;;1.00;92.00;;;;;;5032689;28;20032;-71
2021/03/20 06:10:17;;;;;;;12.18;11.02;;;1.00;92.00;;;;;;5031938;28;20096;-70
2021/03/20 06:12:50;;;;;;;14.20;12.98;;;1.10;92.00;;;;;;5031111;28;20025;-71
2021/03/20 06:15:56;;;;;;;14.27;12.95;;;1.10;92.00;;;;;;5031818;28;20029;-70
2021/03/20 06:18:50;;;;;;;17.90;16.27;;;1.10;92.00;;;;;;5027255;28;20048;-71
2021/03/20 06:21:30;;;;;;;16.15;14.02;;;1.10;92.00;;;;;;5032133;28;20033;-69
2021/03/20 06:24:43;;;;;;;10.68;9.63;;;1.10;92.00;;;;;;5031609;28;20575;-70
2021/03/20 06:27:16;;;;;;;18.67;17.17;;;1.10;92.00;;;;;;4990509;28;20375;-69
2021/03/20 06:29:55;;;;;;;12.40;11.30;;;1.10;92.00;;;;;;4989942;28;20031;-70
2021/03/20 06:32:30;;;;;;;12.57;10.70;;;1.20;92.00;;;;;;5010948;28;20516;-70
2021/03/20 06:35:15;;;;;;;12.82;11.27;;;1.20;92.00;;;;;;5030752;28;20109;-71
2021/03/20 06:37:50;;;;;;;11.25;10.05;;;1.20;92.00;;;;;;5019931;28;20045;-71
2021/03/20 06:40:39;;;;;;;9.55;8.45;;;1.30;92.00;;;;;;5031700;28;20477;-71
2021/03/20 06:43:05;;;;;;;9.10;7.90;;;1.30;91.80;;;;;;5032138;28;20489;-71
2021/03/20 06:45:32;;;;;;;8.13;5.50;;;1.40;91.80;;;;;;5031006;28;20033;-71
2021/03/20 06:48:10;;;;;;;8.05;6.10;;;1.50;91.90;;;;;;5046959;28;20033;-71
2021/03/20 06:50:46;;;;;;;7.85;6.53;;;1.50;91.40;;;;;;5046612;28;20022;-71
2021/03/20 06:53:15;;;;;;;8.43;6.80;;;1.60;91.30;;;;;;5031401;28;20026;-71
2021/03/20 06:55:44;;;;;;;7.10;5.97;;;1.60;91.30;;;;;;5031516;28;20505;-70
2021/03/20 06:58:34;;;;;;;6.70;5.35;;;1.70;91.20;;;;;;5046437;28;20038;-71
2021/03/20 07:01:37;;;;;;;7.95;5.22;;;1.70;91.10;;;;;;5031819;28;20124;-71
2021/03/20 07:04:13;;;;;;;4.85;4.32;;;1.80;90.90;;;;;;5032314;28;20034;-71
2021/03/20 07:06:47;;;;;;;6.70;4.43;;;1.80;90.70;;;;;;5046478;28;20022;-71
2021/03/20 07:09:13;;;;;;;6.50;4.50;;;1.90;90.40;;;;;;5046820;28;20400;-71
2021/03/20 07:12:01;;;;;;;8.52;4.25;;;2.00;90.20;;;;;;5030907;28;20104;-70
2021/03/20 07:14:37;;;;;;;6.18;3.97;;;2.00;89.80;;;;;;5031302;28;20022;-71
2021/03/20 07:17:06;;;;;;;5.03;3.60;;;2.10;89.50;;;;;;5032068;28;20473;-70
2021/03/20 07:19:32;;;;;;;5.90;4.03;;;2.20;89.10;;;;;;5030516;28;20612;-70
2021/03/20 07:21:57;;;;;;;6.25;3.78;;;2.30;89.00;;;;;;5031773;28;20100;-70
2021/03/20 07:24:37;;;;;;;5.78;3.60;;;2.30;88.20;;;;;;5046402;28;20030;-70
2021/03/20 07:27:18;;;;;;;6.65;3.67;;;2.40;87.20;;;;;;5046177;28;20382;-70
2021/03/20 07:29:50;;;;;;;5.65;3.55;;;2.50;86.50;;;;;;5046641;28;20359;-70
2021/03/20 07:32:20;;;;;;;5.95;3.92;;;2.60;86.30;;;;;;5031361;28;20029;-70
2021/03/20 07:34:47;;;;;;;5.13;3.42;;;2.70;86.30;;;;;;5046011;28;20473;-70
2021/03/20 07:37:21;;;;;;;3.88;3.30;;;2.70;86.20;;;;;;5031342;28;20096;-70
2021/03/20 07:39:51;;;;;;;5.13;3.83;;;2.80;86.00;;;;;;5030820;28;20116;-71
2021/03/20 07:42:40;;;;;;;6.30;3.97;;;2.80;85.80;;;;;;5046589;28;20021;-71
2021/03/20 07:45:25;;;;;;;6.95;3.80;;;2.90;85.80;;;;;;5031462;28;20024;-72
2021/03/20 07:47:54;;;;;;;5.68;4.00;;;2.90;85.30;;;;;;5030671;28;20022;-71
2021/03/20 07:50:25;;;;;;;5.70;3.60;;;3.00;84.90;;;;;;5031078;28;20393;-71
2021/03/20 07:53:10;;;;;;;4.78;3.70;;;3.10;84.60;;;;;;5031408;28;20040;-71
2021/03/20 07:56:03;;;;;;;5.32;3.83;;;3.10;84.30;;;;;;5030462;28;20056;-71
2021/03/20 07:58:47;;;;;;;5.97;3.67;;;3.20;84.10;;;;;;5031348;28;20037;-71
2021/03/20 08:01:22;;;;;;;5.75;3.92;;;3.30;84.10;;;;;;5034092;28;20033;-70
2021/03/20 08:03:50;;;;;;;5.35;3.78;;;3.40;83.50;;;;;;5034852;28;20017;-71
2021/03/20 08:06:22;;;;;;;5.47;4.05;;;3.50;83.50;;;;;;5034695;28;20044;-71
2021/03/20 08:08:49;;;;;;;6.07;4.45;;;3.60;83.30;;;;;;5034200;28;20524;-70
2021/03/20 08:11:33;;;;;;;6.03;3.92;;;3.70;83.20;;;;;;5034537;28;20018;-69
2021/03/20 08:14:24;;;;;;;7.38;5.30;;;3.80;82.50;;;;;;5034736;28;20065;-71
2021/03/20 08:16:51;;;;;;;8.13;4.45;;;4.00;82.40;;;;;;5018404;28;20036;-70
2021/03/20 08:19:19;;;;;;;5.60;4.15;;;4.10;81.70;;;;;;5014543;28;20021;-71
2021/03/20 08:22:22;;;;;;;8.10;4.72;;;4.20;80.40;;;;;;5014791;28;20034;-70
2021/03/20 08:25:15;;;;;;;6.82;3.95;;;4.40;79.50;;;;;;5023857;28;20029;-69
2021/03/20 08:27:50;;;;;;;5.20;4.22;;;4.60;78.40;;;;;;5034119;28;20100;-70
2021/03/20 08:30:40;;;;;;;6.93;4.18;;;4.80;78.60;;;;;;5033627;28;20504;-71
2021/03/20 08:33:38;;;;;;;6.72;4.43;;;5.00;77.70;;;;;;5050109;28;20359;-70
2021/03/20 08:36:34;;;;;;;7.53;4.88;;;5.30;76.70;;;;;;5029120;28;20447;-71
2021/03/20 08:39:39;;;;;;;6.80;4.28;;;5.40;75.50;;;;;;5034420;28;20128;-70
2021/03/20 08:42:16;;;;;;;6.40;4.25;;;5.50;74.50;;;;;;4992682;28;20036;-70
2021/03/20 08:45:03;;;;;;;5.72;3.97;;;5.60;73.60;;;;;;5027872;28;20038;-70
2021/03/20 08:47:54;;;;;;;4.88;4.07;;;5.60;73.50;;;;;;5048879;28;20446;-71
2021/03/20 08:50:26;;;;;;;8.13;5.13;;;5.60;73.10;;;;;;5048474;28;20033;-71
2021/03/20 08:52:57;;;;;;;5.82;4.30;;;5.70;72.50;;;;;;5049280;28;20489;-71
2021/03/20 08:55:57;;;;;;;8.68;4.35;;;5.70;72.40;;;;;;5032041;28;20129;-71
2021/03/20 08:58:35;;;;;;;8.43;4.65;;;5.90;72.50;;;;;;5031788;28;20037;-69
2021/03/20 09:01:17;;;;;;;6.88;4.30;;;6.00;72.30;;;;;;5032423;28;20080;-70
2021/03/20 09:03:50;;;;;;;6.63;4.43;;;6.00;71.80;;;;;;5033758;28;20382;-70
2021/03/20 09:06:25;;;;;;;6.45;4.13;;;6.10;71.50;;;;;;5032949;28;20037;-71
2021/03/20 09:08:53;;;;;;;7.40;4.45;;;6.10;71.60;;;;;;5033516;28;20098;-70
2021/03/20 09:11:20;;;;;;;5.18;4.25;;;6.00;71.30;;;;;;5031474;28;20386;-71
2021/03/20 09:13:58;;;;;;;6.60;4.47;;;5.90;71.50;;;;;;5028690;28;20018;-70
2021/03/20 09:16:39;;;;;;;6.20;4.55;;;5.90;71.70;;;;;;5032064;28;20454;-71
2021/03/20 09:19:21;;;;;;;6.32;4.20;;;5.90;71.30;;;;;;5032223;28;20110;-80
2021/03/20 09:21:47;;;;;;;6.43;3.90;;;5.80;71.30;;;;;;5033016;28;20037;-70
2021/03/20 09:24:19;;;;;;;7.00;3.67;;;5.70;71.50;;;;;;5012008;28;20017;-67
2021/03/20 09:26:57;;;;;;;4.93;3.90;;;5.70;70.90;;;;;;5022241;28;20394;-72
2021/03/20 09:29:29;;;;;;;4.78;3.70;;;5.70;70.60;;;;;;5031545;28;20159;-71
2021/03/20 09:31:55;;;;;;;;;;;5.80;69.30;;;;;;5031357;28;20084;-71
2021/03/20 09:34:35;;;;;;;3.80;3.40;;;5.80;69.50;;;;;;5030882;28;20006;-70
2021/03/20 09:37:26;;;;;;;4.07;3.50;;;5.80;69.30;;;;;;5029219;28;20029;-69
2021/03/20 09:39:53;;;;;;;5.53;3.80;;;5.80;68.80;;;;;;5032197;28;20036;-71
2021/03/20 09:42:25;;;;;;;5.50;3.80;;;5.90;69.40;;;;;;5032178;28;20062;-71
2021/03/20 09:45:15;;;;;;;3.47;3.17;;;6.00;69.40;;;;;;5032639;28;20037;-69
2021/03/20 09:47:40;;;;;;;5.68;3.40;;;6.00;69.40;;;;;;5004412;28;20084;-70
2021/03/20 09:50:26;;;;;;;4.93;3.78;;;6.10;69.50;;;;;;5012156;28;20077;-71
2021/03/20 09:53:09;;;;;;;4.00;3.40;;;6.20;69.60;;;;;;5029895;28;20072;-72
2021/03/20 09:55:42;;;;;;;4.05;3.30;;;6.30;69.00;;;;;;5031499;28;20056;-71
2021/03/20 09:58:20;;;;;;;4.30;3.40;;;6.40;68.10;;;;;;5032958;28;20075;-71
2021/03/20 10:00:52;;;;;;;6.50;3.88;;;6.40;68.10;;;;;;5031680;28;20124;-71
2021/03/20 10:03:50;;;;;;;4.10;3.47;;;6.50;67.90;;;;;;5032147;28;20038;-70
2021/03/20 10:06:37;;;;;;;5.43;3.65;;;6.50;68.00;;;;;;5030495;28;20033;-70
2021/03/20 10:09:23;;;;;;;5.20;3.92;;;6.50;68.40;;;;;;5023088;28;20382;-73
2021/03/20 10:11:54;;;;;;;4.45;3.58;;;6.60;68.40;;;;;;5029746;28;20465;-70
2021/03/20 10:14:35;;;;;;;3.78;3.47;;;6.70;68.40;;;;;;5031356;28;20034;-71
2021/03/20 10:17:19;;;;;;;3.85;3.45;;;6.70;68.20;;;;;;5032369;28;20037;-71
2021/03/20 10:19:51;;;;;;;6.35;3.80;;;6.70;67.50;;;;;;5031812;28;20377;-71
2021/03/20 10:22:36;;;;;;;4.85;3.50;;;6.70;66.90;;;;;;5009714;28;20548;-71
2021/03/20 10:25:04;;;;;;;4.50;3.30;;;6.70;67.00;;;;;;5012345;28;20483;-71
2021/03/20 10:27:34;;;;;;;5.30;3.40;;;6.80;66.50;;;;;;5011331;28;20084;-70
2021/03/20 10:30:13;;;;;;;5.93;3.53;;;6.80;66.20;;;;;;5011802;28;20121;-70
2021/03/20 10:32:40;;;;;;;3.33;3.03;;;6.70;66.20;;;;;;5029859;28;20029;-71
2021/03/20 10:35:08;;;;;;;4.80;3.42;;;6.70;66.10;;;;;;5031050;28;20033;-70
2021/03/20 10:37:35;;;;;;;5.88;3.42;;;6.70;65.60;;;;;;5030922;28;20481;-70
2021/03/20 10:40:19;;;;;;;3.78;3.47;;;6.70;65.20;;;;;;5031843;28;20045;-70
2021/03/20 10:42:47;;;;;;;3.97;3.38;;;6.80;65.20;;;;;;5031291;28;20022;-71
2021/03/20 10:45:36;;;;;;;3.47;3.17;;;6.80;65.70;;;;;;5031554;28;20599;-71
2021/03/20 10:48:10;;;;;;;3.90;3.13;;;6.90;65.50;;;;;;5030008;28;20033;-71
2021/03/20 10:50:38;;;;;;;3.75;3.35;;;6.90;65.40;;;;;;5029849;28;20025;-71
2021/03/20 10:53:11;;;;;;;4.45;3.10;;;7.00;65.80;;;;;;5031935;28;20026;-71
2021/03/20 10:55:43;;;;;;;3.85;3.05;;;7.10;65.60;;;;;;5031428;28;20129;-71
2021/03/20 10:58:14;;;;;;;4.68;3.03;;;7.20;65.70;;;;;;5031205;28;20060;-71
2021/03/20 11:00:50;;;;;;;6.30;3.90;;;7.30;65.50;;;;;;5029795;28;20047;-70
2021/03/20 11:03:33;;;;;;;5.30;3.33;;;7.40;65.20;;;;;;5030043;28;20017;-71
2021/03/20 11:06:10;;;;;;;4.68;3.85;;;7.50;64.60;;;;;;5030589;28;20037;-71
2021/03/20 11:08:37;;;;;;;6.60;3.63;;;7.50;64.00;;;;;;5030804;28;20107;-70
2021/03/20 11:11:32;;;;;;;4.78;3.53;;;7.40;64.40;;;;;;5029605;28;20553;-70
2021/03/20 11:14:14;;;;;;;7.10;3.90;;;7.40;64.10;;;;;;5031363;28;20513;-70
2021/03/20 11:16:48;;;;;;;5.05;3.78;;;7.40;64.20;;;;;;5029688;28;20049;-71
2021/03/20 11:19:28;;;;;;;4.95;4.10;;;7.50;65.40;;;;;;5029215;28;20033;-71
2021/03/20 11:21:59;;;;;;;4.15;3.50;;;7.50;65.90;;;;;;5031317;28;20029;-72
2021/03/20 11:24:35;;;;;;;4.53;3.58;;;7.50;65.50;;;;;;5029751;28;20025;-72
2021/03/20 11:27:23;;;;;;;4.57;4.00;;;7.50;64.20;;;;;;5030469;28;20033;-71
2021/03/20 11:29:53;;;;;;;4.38;3.97;;;7.60;65.70;;;;;;5027126;28;20032;-68
2021/03/20 11:32:28;;;;;;;5.18;4.28;;;7.60;65.80;;;;;;5025768;28;20417;-70
2021/03/20 11:35:03;;;;;;;7.60;4.50;;;7.70;66.00;;;;;;5030862;28;20048;-70
2021/03/20 11:37:29;;;;;;;5.32;3.92;;;7.70;65.70;;;;;;5031786;28;20041;-70
2021/03/20 11:39:57;;;;;;;4.28;3.88;;;7.70;65.60;;;;;;5031111;28;20029;-69
2021/03/20 11:42:27;;;;;;;4.88;4.00;;;7.80;66.00;;;;;;5031060;28;20022;-70
2021/03/20 11:44:53;;;;;;;5.93;4.38;;;7.90;66.20;;;;;;5031304;28;20034;-70
2021/03/20 11:47:24;;;;;;;6.53;4.40;;;8.00;66.00;;;;;;5029700;28;20025;-71
2021/03/20 11:49:55;;;;;;;4.18;3.65;;;8.20;66.90;;;;;;5031577;28;20033;-73
2021/03/20 11:52:25;;;;;;;4.20;3.72;;;8.30;65.60;;;;;;5031231;28;20056;-69
2021/03/20 11:55:12;;;;;;;4.03;3.63;;;8.40;64.30;;;;;;5031658;28;20489;-73
2021/03/20 11:57:40;;;;;;;5.63;3.92;;;8.50;63.60;;;;;;5034367;28;20445;-69
2021/03/20 12:00:30;;;;;;;5.50;3.90;;;8.60;63.90;;;;;;5033938;28;20021;-68
2021/03/20 12:02:56;;;;;;;4.38;3.88;;;8.60;63.70;;;;;;5034428;28;20033;-70
2021/03/20 12:05:36;;;;;;;3.90;3.50;;;8.60;63.30;;;;;;5034122;28;20026;-72
2021/03/20 12:08:21;;;;;;;3.72;3.42;;;8.60;62.30;;;;;;5032743;28;20036;-70
2021/03/20 12:11:09;;;;;;;4.68;4.18;;;8.60;62.20;;;;;;5034676;28;20017;-71
2021/03/20 12:13:45;;;;;;;4.43;3.67;;;8.60;62.60;;;;;;5034203;28;20040;-70
2021/03/20 12:16:34;;;;;;;4.28;3.67;;;8.70;61.80;;;;;;5032436;28;20037;-70
2021/03/20 12:19:14;;;;;;;4.63;3.60;;;8.70;61.30;;;;;;5028182;28;20525;-68
2021/03/20 12:22:06;;;;;;;5.18;3.35;;;8.70;61.90;;;;;;5040473;28;20064;-70
2021/03/20 12:24:40;;;;;;;5.57;4.00;;;8.70;61.80;;;;;;5033643;28;20026;-71
2021/03/20 12:27:41;;;;;;;5.93;4.70;;;8.80;62.00;;;;;;5033732;28;20060;-70
2021/03/20 12:30:29;;;;;;;4.13;3.72;;;8.80;61.60;;;;;;4956650;28;20074;-71
2021/03/20 12:33:17;;;;;;;5.32;3.70;;;8.90;62.10;;;;;;5027803;28;20030;-70
2021/03/20 12:35:47;;;;;;;4.80;4.22;;;8.90;62.00;;;;;;5032939;28;20028;-70
2021/03/20 12:38:18;;;;;;;5.28;3.95;;;9.00;62.00;;;;;;5049550;28;20048;-71
2021/03/20 12:40:48;;;;;;;6.40;4.47;;;9.10;62.00;;;;;;5033714;28;20168;-71
2021/03/20 12:43:35;;;;;;;4.70;3.92;;;9.10;61.00;;;;;;5033009;28;20024;-70
2021/03/20 12:46:07;;;;;;;5.07;4.20;;;9.20;60.50;;;;;;5033196;28;20625;-72
2021/03/20 12:48:38;;;;;;;5.28;3.97;;;9.20;60.70;;;;;;5033300;28;20084;-70
2021/03/20 12:51:16;;;;;;;4.55;3.83;;;9.30;60.90;;;;;;5032108;28;20040;-70
2021/03/20 12:53:41;;;;;;;5.32;4.13;;;9.50;60.80;;;;;;5033759;28;20030;-69
2021/03/20 12:56:07;;;;;;;4.95;3.80;;;9.60;60.50;;;;;;5032554;28;20060;-70
2021/03/20 12:58:32;;;;;;;5.32;4.22;;;9.80;59.90;;;;;;5030739;28;20030;-71
2021/03/20 13:00:58;;;;;;;5.20;4.20;;;9.90;59.40;;;;;;5033145;28;20037;-70
2021/03/20 13:03:24;;;;;;;5.35;4.38;;;9.90;58.30;;;;;;5030557;28;20028;-70
2021/03/20 13:05:49;;;;;;;5.00;4.47;;;9.80;58.50;;;;;;5032615;28;20080;-69
2021/03/20 13:08:15;;;;;;;7.93;4.40;;;9.80;58.50;;;;;;5032485;28;20370;-70
2021/03/20 13:10:41;;;;;;;4.93;4.40;;;9.80;57.80;;;;;;5032438;28;20136;-71
2021/03/20 13:13:07;;;;;;;5.63;4.05;;;9.70;58.10;;;;;;5039375;28;20040;-70
2021/03/20 13:15:34;;;;;;;5.05;3.80;;;9.60;58.50;;;;;;5052666;28;20391;-70
2021/03/20 13:17:59;;;;;;;4.45;3.75;;;9.60;58.40;;;;;;5045022;28;20028;-68
2021/03/20 13:20:25;;;;;;;4.50;3.65;;;9.60;58.80;;;;;;5032269;28;20033;-69
2021/03/20 13:22:52;;;;;;;5.43;3.40;;;9.80;58.90;;;;;;5032717;28;20026;-68
2021/03/20 13:25:27;;;;;;;4.20;3.80;;;9.90;57.90;;;;;;5029878;28;20401;-70
2021/03/20 13:27:52;;;;;;;3.40;3.10;;;10.00;56.90;;;;;;5030705;28;20113;-71
2021/03/20 13:30:29;;;;;;;4.43;3.63;;;10.20;56.10;;;;;;5030482;28;20129;-70
2021/03/20 13:32:56;;;;;;;5.20;3.40;;;10.30;55.30;;;;;;5029438;28;20021;-70
2021/03/20 13:35:25;;;;;;;4.53;3.92;;;10.40;55.10;;;;;;5031250;28;20026;-69